Time;durP1;ratioP1;P1;durP2;ratioP2;P2;SDS_P1;SDS_P2;PMS_P1;PMS_P2;Temp;Humidity;BMP_temperature;BMP_pressure;BME280_temperature;BME280_humidity;BME280_pressure;Samples;Min_cycle;Max_cycle;Signal;HPM_P1;HPM_P2
2024/03/30 00:01:00;;;;;;;4.25;2.72;;;18.90;60.20;;;;;;5036196;28;20040;-53
2024/03/30 00:03:26;;;;;;;3.70;2.80;;;18.90;60.20;;;;;;5031111;28;20021;-54
2024/03/30 00:06:02;;;;;;;3.53;2.92;;;18.90;60.20;;;;;;5038199;28;20028;-51
2024/03/30 00:08:27;;;;;;;4.72;3.15;;;18.90;60.20;;;;;;5033395;28;20037;-53
2024/03/30 00:11:00;;;;;;;3.78;2.65;;;18.90;60.20;;;;;;5035235;28;20080;-50
2024/03/30 00:13:27;;;;;;;3.85;2.70;;;18.90;60.20;;;;;;5038099;28;20547;-52
2024/03/30 00:15:52;;;;;;;3.45;2.60;;;18.90;60.20;;;;;;5036190;28;20378;-51
2024/03/30 00:18:18;;;;;;;4.07;2.78;;;18.90;60.20;;;;;;5036130;28;20087;-53
2024/03/30 00:20:43;;;;;;;3.15;2.72;;;18.90;60.20;;;;;;5039756;28;20030;-58
2024/03/30 00:23:09;;;;;;;4.13;2.72;;;18.90;60.20;;;;;;5042407;28;20519;-53
2024/03/30 00:25:34;;;;;;;4.50;3.08;;;18.90;60.20;;;;;;5040931;28;20029;-52
2024/03/30 00:28:00;;;;;;;3.60;2.70;;;18.90;60.20;;;;;;5041374;28;20047;-51
2024/03/30 00:30:26;;;;;;;3.47;2.58;;;18.90;60.20;;;;;;5022955;28;20029;-56
2024/03/30 00:32:51;;;;;;;5.38;3.05;;;18.90;60.20;;;;;;5032422;28;20032;-57
2024/03/30 00:35:17;;;;;;;3.78;2.70;;;18.90;60.20;;;;;;5040991;28;20033;-57
2024/03/30 00:37:42;;;;;;;3.72;2.70;;;18.90;60.20;;;;;;5022245;28;20021;-49
2024/03/30 00:40:08;;;;;;;4.15;2.70;;;18.90;60.20;;;;;;5033308;28;20689;-54
2024/03/30 00:42:34;;;;;;;3.20;2.40;;;18.90;60.20;;;;;;5036055;28;20036;-57
2024/03/30 00:45:00;;;;;;;3.08;2.25;;;18.90;60.20;;;;;;5029689;28;20082;-57
2024/03/30 00:47:26;;;;;;;3.45;2.50;;;18.90;60.20;;;;;;5034242;28;20112;-58
2024/03/30 00:49:51;;;;;;;2.95;2.63;;;18.90;60.30;;;;;;5033675;28;20476;-56
2024/03/30 00:52:17;;;;;;;3.47;2.50;;;18.90;60.20;;;;;;5035427;28;20108;-49
2024/03/30 00:54:42;;;;;;;3.90;2.15;;;18.90;60.20;;;;;;5016408;28;20037;-52
2024/03/30 00:57:08;;;;;;;4.65;2.58;;;18.90;60.20;;;;;;5035887;28;20996;-55
2024/03/30 00:59:35;;;;;;;2.63;2.42;;;18.90;60.20;;;;;;5035135;28;20037;-53
2024/03/30 01:02:00;;;;;;;2.90;2.33;;;18.90;60.20;;;;;;5033851;28;20025;-51
2024/03/30 01:04:26;;;;;;;2.38;1.98;;;18.90;60.20;;;;;;5038568;28;20032;-53
2024/03/30 01:06:51;;;;;;;2.88;2.17;;;18.90;60.30;;;;;;5035206;28;20473;-52
2024/03/30 01:09:16;;;;;;;3.25;2.13;;;18.90;60.30;;;;;;5039450;28;20029;-53
2024/03/30 01:11:42;;;;;;;4.20;2.50;;;18.90;60.30;;;;;;5039450;28;20033;-51
2024/03/30 01:14:08;;;;;;;3.22;1.92;;;18.90;60.40;;;;;;5035775;28;20398;-51
2024/03/30 01:16:34;;;;;;;2.67;2.03;;;18.80;60.40;;;;;;5039154;28;20035;-52
2024/03/30 01:18:59;;;;;;;3.38;2.30;;;18.80;60.40;;;;;;5039831;28;20044;-51
2024/03/30 01:21:25;;;;;;;2.63;2.05;;;18.80;60.40;;;;;;5043094;28;20432;-53
2024/03/30 01:23:51;;;;;;;3.08;2.28;;;18.80;60.40;;;;;;5040468;28;20386;-52
2024/03/30 01:26:22;;;;;;;3.65;2.30;;;18.80;60.40;;;;;;5038672;28;20053;-51
2024/03/30 01:28:49;;;;;;;2.15;1.73;;;18.80;60.50;;;;;;5039817;28;20094;-52
2024/03/30 01:31:15;;;;;;;2.40;2.13;;;18.80;60.50;;;;;;5036372;28;20029;-49
2024/03/30 01:33:41;;;;;;;2.88;2.03;;;18.80;60.50;;;;;;5039598;28;20091;-52
2024/03/30 01:36:07;;;;;;;4.22;2.17;;;18.70;60.50;;;;;;5037289;28;20388;-51
2024/03/30 01:38:32;;;;;;;2.80;2.28;;;18.80;60.60;;;;;;5035482;28;20056;-54
2024/03/30 01:40:58;;;;;;;3.90;2.10;;;18.80;60.70;;;;;;5037609;28;20049;-55
2024/03/30 01:43:24;;;;;;;2.65;2.08;;;18.70;60.60;;;;;;5038493;28;20025;-54
2024/03/30 01:45:53;;;;;;;4.85;2.50;;;18.70;60.80;;;;;;5020925;28;20025;-54
2024/03/30 01:48:21;;;;;;;2.28;1.90;;;18.70;60.70;;;;;;5020202;28;20086;-52
2024/03/30 01:50:48;;;;;;;3.22;2.05;;;18.70;60.90;;;;;;5040724;28;20025;-52
2024/03/30 01:53:17;;;;;;;2.67;2.20;;;18.70;60.90;;;;;;5039055;28;20037;-51
2024/03/30 01:55:46;;;;;;;3.63;1.80;;;18.70;60.70;;;;;;5032300;28;20115;-50
2024/03/30 01:58:15;;;;;;;2.78;2.00;;;18.70;60.60;;;;;;5034719;28;22091;-49
2024/03/30 02:00:41;;;;;;;2.38;1.95;;;18.80;60.70;;;;;;5035570;28;20087;-51
2024/03/30 02:03:07;;;;;;;2.80;1.88;;;18.70;60.50;;;;;;5035604;28;20033;-51
2024/03/30 02:05:33;;;;;;;2.70;2.20;;;18.80;60.50;;;;;;5029648;28;20041;-51
2024/03/30 02:08:03;;;;;;;2.30;1.80;;;18.80;60.30;;;;;;5031768;28;20033;-51
2024/03/30 02:10:29;;;;;;;2.35;2.10;;;18.90;60.20;;;;;;5025702;28;20064;-53
2024/03/30 02:12:54;;;;;;;2.55;1.67;;;18.90;60.00;;;;;;5032382;28;20029;-51
2024/03/30 02:15:20;;;;;;;2.72;1.88;;;19.00;59.90;;;;;;5029346;28;20108;-51
2024/03/30 02:17:46;;;;;;;2.03;1.55;;;19.10;59.70;;;;;;5035213;28;20031;-52
2024/03/30 02:20:12;;;;;;;2.70;1.98;;;19.20;59.50;;;;;;5025551;28;20037;-52
2024/03/30 02:22:38;;;;;;;2.38;1.60;;;19.30;59.30;;;;;;5034195;28;20029;-52
2024/03/30 02:25:03;;;;;;;1.88;1.48;;;19.40;59.10;;;;;;5036555;28;20073;-51
2024/03/30 02:27:34;;;;;;;2.90;2.10;;;19.50;58.90;;;;;;5018705;28;20525;-54
2024/03/30 02:30:01;;;;;;;2.78;2.05;;;19.60;58.70;;;;;;5034028;28;20032;-53
2024/03/30 02:32:28;;;;;;;2.55;1.85;;;19.60;58.50;;;;;;5036913;28;20036;-53
2024/03/30 02:34:54;;;;;;;1.85;1.48;;;19.80;58.30;;;;;;5035688;28;20033;-50
2024/03/30 02:37:20;;;;;;;2.00;1.65;;;19.80;58.20;;;;;;5038747;28;20119;-52
2024/03/30 02:39:45;;;;;;;3.25;2.38;;;19.90;58.00;;;;;;5021468;28;20485;-51
2024/03/30 02:42:11;;;;;;;2.67;1.80;;;20.00;57.80;;;;;;5037941;28;20559;-52
2024/03/30 02:44:36;;;;;;;1.80;1.60;;;20.00;57.80;;;;;;5035143;28;20033;-52
2024/03/30 02:47:02;;;;;;;2.25;1.75;;;20.00;57.60;;;;;;5038345;28;20032;-51
2024/03/30 02:49:27;;;;;;;3.28;1.90;;;20.10;57.60;;;;;;5034386;28;20040;-56
2024/03/30 02:51:52;;;;;;;2.53;1.50;;;20.10;57.60;;;;;;5038246;28;20025;-61
2024/03/30 02:54:18;;;;;;;2.13;1.70;;;20.10;57.60;;;;;;5035729;28;20575;-50
2024/03/30 02:56:43;;;;;;;1.42;1.30;;;20.10;57.70;;;;;;5035861;28;20032;-53
2024/03/30 02:59:09;;;;;;;2.30;1.60;;;20.00;57.70;;;;;;5032002;28;20033;-55
2024/03/30 03:01:36;;;;;;;1.88;1.38;;;20.00;57.80;;;;;;5022478;28;20041;-54
2024/03/30 03:04:03;;;;;;;1.65;1.30;;;20.00;58.00;;;;;;5028660;28;20125;-51
2024/03/30 03:06:29;;;;;;;2.85;1.50;;;20.00;58.10;;;;;;5028282;28;20037;-55
2024/03/30 03:08:54;;;;;;;2.20;1.50;;;19.90;58.10;;;;;;5020662;28;20555;-53
2024/03/30 03:11:20;;;;;;;2.25;1.48;;;19.90;58.30;;;;;;5014554;28;20080;-51
2024/03/30 03:13:45;;;;;;;1.77;1.60;;;19.80;58.30;;;;;;5032072;28;20037;-52
2024/03/30 03:16:10;;;;;;;2.72;1.63;;;19.80;58.40;;;;;;5029088;28;20033;-52
2024/03/30 03:18:36;;;;;;;1.70;1.45;;;19.70;58.60;;;;;;5032393;28;20041;-51
2024/03/30 03:21:01;;;;;;;4.22;1.75;;;19.70;58.70;;;;;;5024553;28;20032;-53
2024/03/30 03:23:30;;;;;;;2.65;2.05;;;19.60;58.70;;;;;;5029169;28;20022;-51
2024/03/30 03:25:56;;;;;;;1.75;1.52;;;19.60;58.90;;;;;;5033456;28;20413;-51
2024/03/30 03:28:21;;;;;;;2.15;1.58;;;19.60;58.90;;;;;;5032234;28;20039;-51
2024/03/30 03:30:47;;;;;;;2.33;1.58;;;19.50;59.00;;;;;;5031056;28;20041;-52
2024/03/30 03:33:13;;;;;;;3.38;1.85;;;19.50;59.10;;;;;;5032597;28;20048;-53
2024/03/30 03:35:39;;;;;;;4.80;1.65;;;19.50;59.20;;;;;;5035579;28;20039;-51
2024/03/30 03:38:04;;;;;;;2.30;1.75;;;19.40;59.30;;;;;;5032854;28;20038;-51
2024/03/30 03:40:31;;;;;;;2.78;1.50;;;19.40;59.40;;;;;;5039586;28;20117;-53
2024/03/30 03:42:56;;;;;;;4.20;2.08;;;19.40;59.40;;;;;;5033579;28;20037;-51
2024/03/30 03:45:22;;;;;;;2.10;1.30;;;19.40;59.40;;;;;;5036228;28;20032;-49
2024/03/30 03:47:48;;;;;;;2.40;1.40;;;19.30;59.50;;;;;;5031674;28;20389;-53
2024/03/30 03:50:13;;;;;;;2.08;1.42;;;19.40;59.60;;;;;;5034239;28;20029;-53
2024/03/30 03:52:39;;;;;;;3.03;1.15;;;19.30;59.60;;;;;;5032919;28;20501;-52
2024/03/30 03:55:05;;;;;;;1.83;1.35;;;19.30;59.60;;;;;;5031724;28;20076;-51
2024/03/30 03:57:30;;;;;;;3.00;1.60;;;19.30;59.70;;;;;;5037606;28;20115;-53
2024/03/30 03:59:56;;;;;;;2.13;1.58;;;19.20;59.70;;;;;;5037879;28;20116;-51
2024/03/30 04:02:21;;;;;;;2.03;1.50;;;19.20;59.70;;;;;;5021118;28;22288;-51
2024/03/30 04:04:47;;;;;;;4.35;1.80;;;19.20;59.80;;;;;;5028159;28;20029;-52
2024/03/30 04:07:12;;;;;;;4.03;1.70;;;19.20;59.80;;;;;;5028429;28;20401;-53
2024/03/30 04:09:38;;;;;;;2.42;1.58;;;19.20;59.90;;;;;;5029805;28;20089;-61
2024/03/30 04:12:03;;;;;;;3.03;1.65;;;19.20;59.90;;;;;;5026233;28;20045;-52
2024/03/30 04:14:29;;;;;;;2.70;1.75;;;19.20;60.60;;;;;;5029354;28;20219;-53
2024/03/30 04:16:54;;;;;;;3.20;1.55;;;19.10;60.00;;;;;;5026982;28;20046;-51
2024/03/30 04:19:20;;;;;;;3.28;1.80;;;19.10;60.00;;;;;;5024797;28;20029;-54
2024/03/30 04:21:46;;;;;;;4.95;1.63;;;19.10;60.00;;;;;;5033998;28;20418;-51
2024/03/30 04:24:12;;;;;;;2.05;1.60;;;19.10;60.10;;;;;;5029585;28;20040;-54
2024/03/30 04:26:39;;;;;;;4.50;1.70;;;19.00;60.10;;;;;;5034628;28;20033;-53
2024/03/30 04:29:04;;;;;;;4.05;1.90;;;19.00;60.10;;;;;;5035988;28;20387;-52
2024/03/30 04:31:30;;;;;;;3.75;1.58;;;19.10;60.10;;;;;;5029268;28;20060;-51
2024/03/30 04:33:55;;;;;;;4.93;1.80;;;19.00;60.10;;;;;;5036575;28;20090;-59
2024/03/30 04:36:21;;;;;;;4.25;1.70;;;19.00;60.20;;;;;;5020649;28;20095;-52
2024/03/30 04:38:47;;;;;;;4.38;2.03;;;19.00;60.20;;;;;;5033512;28;20431;-50
2024/03/30 04:41:12;;;;;;;3.67;2.05;;;19.00;60.20;;;;;;5038635;28;20037;-52
2024/03/30 04:43:38;;;;;;;4.55;1.90;;;19.00;60.20;;;;;;5041474;28;20029;-53
2024/03/30 04:46:06;;;;;;;2.10;1.40;;;19.00;60.50;;;;;;5033605;28;20036;-52
2024/03/30 04:48:32;;;;;;;4.60;1.80;;;19.00;60.40;;;;;;5034798;28;20074;-48
2024/03/30 04:51:01;;;;;;;4.03;1.92;;;19.00;60.40;;;;;;5022782;28;20025;-49
2024/03/30 04:53:32;;;;;;;3.10;1.75;;;18.90;60.40;;;;;;5014858;28;20033;-49
2024/03/30 04:56:02;;;;;;;5.97;1.83;;;18.90;60.50;;;;;;5015979;28;20033;-49
2024/03/30 04:58:30;;;;;;;4.63;1.63;;;18.90;60.50;;;;;;5034879;28;20025;-49
2024/03/30 05:01:00;;;;;;;3.60;1.83;;;18.90;60.50;;;;;;5022230;28;20490;-49
2024/03/30 05:03:26;;;;;;;3.50;1.48;;;18.90;60.50;;;;;;5040820;28;20033;-51
2024/03/30 05:05:52;;;;;;;2.60;1.20;;;18.90;60.60;;;;;;5038777;28;20087;-50
2024/03/30 05:08:17;;;;;;;6.05;1.50;;;18.90;60.50;;;;;;5038179;28;20049;-52
2024/03/30 05:10:43;;;;;;;2.80;1.35;;;18.90;60.50;;;;;;5036867;28;20029;-55
2024/03/30 05:13:09;;;;;;;4.03;2.03;;;18.90;60.50;;;;;;5040094;28;20499;-56
2024/03/30 05:15:42;;;;;;;4.70;1.80;;;18.90;60.60;;;;;;5038650;28;20033;-58
2024/03/30 05:18:10;;;;;;;3.00;1.60;;;18.90;60.60;;;;;;5035984;28;20033;-53
2024/03/30 05:20:49;;;;;;;4.32;2.45;;;18.90;60.60;;;;;;5036608;28;20036;-54
2024/03/30 05:23:35;;;;;;;3.80;1.77;;;18.90;60.60;;;;;;5038386;28;20045;-52
2024/03/30 05:26:05;;;;;;;2.63;1.67;;;18.90;60.40;;;;;;5038967;28;20124;-56
2024/03/30 05:28:36;;;;;;;3.30;1.50;;;18.90;60.40;;;;;;5041647;28;21913;-53
2024/03/30 05:31:07;;;;;;;3.20;1.55;;;18.90;60.30;;;;;;5040840;28;20029;-58
2024/03/30 05:33:33;;;;;;;3.92;1.77;;;18.90;60.30;;;;;;5036223;28;20037;-49
2024/03/30 05:35:58;;;;;;;3.75;1.80;;;18.90;60.20;;;;;;5036374;28;20178;-49
2024/03/30 05:38:23;;;;;;;4.88;1.92;;;18.90;60.10;;;;;;5043392;28;20032;-56
2024/03/30 05:40:50;;;;;;;3.83;1.83;;;19.00;60.10;;;;;;5036062;28;20083;-49
2024/03/30 05:43:15;;;;;;;5.25;1.52;;;19.00;60.00;;;;;;5041152;28;20064;-50
2024/03/30 05:45:46;;;;;;;4.93;1.77;;;19.00;59.90;;;;;;5008701;28;20100;-49
2024/03/30 05:48:11;;;;;;;3.67;1.77;;;19.10;59.80;;;;;;5036402;28;20040;-49
2024/03/30 05:50:37;;;;;;;3.20;1.90;;;19.10;59.70;;;;;;5037371;28;20032;-49
2024/03/30 05:53:03;;;;;;;4.03;1.80;;;19.20;59.60;;;;;;5040643;28;20064;-49
2024/03/30 05:55:29;;;;;;;3.97;1.80;;;19.20;59.40;;;;;;5017999;28;20045;-50
2024/03/30 05:57:55;;;;;;;4.70;2.17;;;19.30;59.30;;;;;;5035948;28;20029;-53
2024/03/30 06:00:22;;;;;;;5.40;2.20;;;19.30;59.20;;;;;;5034088;28;20228;-49
2024/03/30 06:02:47;;;;;;;6.95;1.70;;;19.40;59.10;;;;;;5037766;28;20079;-49
2024/03/30 06:05:14;;;;;;;3.05;1.50;;;19.40;59.00;;;;;;5039408;28;20068;-61
2024/03/30 06:07:40;;;;;;;6.53;2.13;;;19.50;58.90;;;;;;5035836;28;20115;-49
2024/03/30 06:10:08;;;;;;;8.90;2.25;;;19.50;58.80;;;;;;5035689;28;20057;-49
2024/03/30 06:12:34;;;;;;;4.45;1.48;;;19.60;58.70;;;;;;5041069;28;20064;-51
2024/03/30 06:14:59;;;;;;;4.13;1.60;;;19.60;58.70;;;;;;5034400;28;20063;-55
2024/03/30 06:17:25;;;;;;;4.15;1.80;;;19.70;58.60;;;;;;5033356;28;20045;-50
2024/03/30 06:19:50;;;;;;;6.53;1.92;;;19.70;58.40;;;;;;5038013;28;20066;-56
2024/03/30 06:22:16;;;;;;;4.25;1.95;;;19.70;58.40;;;;;;5039112;28;20117;-52
2024/03/30 06:24:41;;;;;;;4.53;1.88;;;19.70;58.30;;;;;;5038019;28;20473;-49
2024/03/30 06:27:08;;;;;;;5.00;1.98;;;19.80;58.30;;;;;;5036158;28;20090;-52
2024/03/30 06:29:35;;;;;;;4.45;1.80;;;19.80;58.30;;;;;;5037285;28;20188;-49
2024/03/30 06:32:00;;;;;;;6.95;2.30;;;19.80;58.20;;;;;;5032598;28;20506;-49
2024/03/30 06:34:26;;;;;;;3.65;2.42;;;19.80;58.20;;;;;;5040349;28;20079;-60
2024/03/30 06:36:52;;;;;;;4.43;1.67;;;19.80;58.20;;;;;;5035711;28;20087;-52
2024/03/30 06:39:17;;;;;;;5.72;1.85;;;19.80;58.30;;;;;;5037128;28;20031;-52
2024/03/30 06:44:27;;;;;;;6.13;2.20;;;19.80;58.40;;;;;;5037207;28;20086;-56
2024/03/30 06:46:53;;;;;;;6.50;1.70;;;19.80;58.40;;;;;;5036818;28;20026;-49
2024/03/30 06:49:19;;;;;;;6.32;1.58;;;19.80;58.40;;;;;;5038409;28;20044;-50
2024/03/30 06:51:49;;;;;;;4.78;1.60;;;19.80;58.40;;;;;;5038886;28;20490;-49
2024/03/30 06:54:15;;;;;;;6.15;1.70;;;19.80;58.50;;;;;;5038359;28;20036;-49
2024/03/30 06:56:41;;;;;;;3.85;1.52;;;19.70;58.50;;;;;;5040084;28;20029;-49
2024/03/30 06:59:06;;;;;;;5.82;2.30;;;19.70;58.60;;;;;;5039322;28;20025;-49
2024/03/30 07:01:32;;;;;;;5.82;2.08;;;19.70;58.70;;;;;;5037056;28;20025;-53
2024/03/30 07:03:58;;;;;;;4.60;1.90;;;19.70;58.70;;;;;;5042727;28;20027;-55
2024/03/30 07:06:24;;;;;;;3.78;1.80;;;19.70;58.80;;;;;;5026207;28;20036;-53
2024/03/30 07:08:52;;;;;;;6.25;1.83;;;19.70;58.80;;;;;;5033153;28;20111;-57
2024/03/30 07:11:21;;;;;;;6.30;2.20;;;19.60;58.90;;;;;;5024144;28;20021;-57
2024/03/30 07:13:47;;;;;;;4.40;2.35;;;19.60;58.90;;;;;;5034785;28;20055;-53
2024/03/30 07:16:13;;;;;;;6.55;1.63;;;19.60;58.90;;;;;;5026703;28;20036;-59
2024/03/30 07:18:38;;;;;;;4.57;1.83;;;19.60;59.00;;;;;;5035291;28;20021;-54
2024/03/30 07:21:04;;;;;;;4.88;1.63;;;19.60;59.10;;;;;;5042374;28;20038;-57
2024/03/30 07:23:30;;;;;;;3.65;1.50;;;19.60;59.00;;;;;;5034762;28;20040;-55
2024/03/30 07:25:55;;;;;;;3.95;1.50;;;19.60;59.10;;;;;;5036929;28;20025;-50
2024/03/30 07:28:21;;;;;;;4.38;2.05;;;19.50;59.10;;;;;;5035931;28;20029;-52
2024/03/30 07:30:53;;;;;;;5.40;1.92;;;19.60;59.10;;;;;;5028718;28;20033;-50
2024/03/30 07:33:19;;;;;;;6.65;2.30;;;19.50;59.10;;;;;;5031104;28;20037;-56
2024/03/30 07:35:55;;;;;;;7.05;2.15;;;19.60;59.30;;;;;;5033083;28;20032;-55
2024/03/30 07:38:24;;;;;;;7.78;2.10;;;19.50;59.20;;;;;;5037701;28;20041;-51
2024/03/30 07:40:50;;;;;;;7.47;2.40;;;19.50;59.30;;;;;;5035472;28;20115;-50
2024/03/30 07:43:16;;;;;;;3.47;1.77;;;19.50;59.20;;;;;;5038868;28;20033;-50
2024/03/30 07:45:41;;;;;;;6.93;2.33;;;19.50;59.30;;;;;;5037995;28;20037;-50
2024/03/30 07:48:07;;;;;;;7.25;2.40;;;19.50;59.30;;;;;;5040155;28;20513;-59
2024/03/30 07:50:32;;;;;;;5.00;1.95;;;19.50;59.20;;;;;;5039565;28;20035;-50
2024/03/30 07:52:57;;;;;;;6.72;1.65;;;19.50;59.30;;;;;;5039735;28;20036;-49
2024/03/30 07:55:23;;;;;;;6.30;2.20;;;19.50;59.30;;;;;;5036011;28;20083;-55
2024/03/30 07:57:49;;;;;;;5.53;1.80;;;19.50;59.30;;;;;;5040008;28;20091;-55
2024/03/30 08:00:15;;;;;;;7.28;1.90;;;19.50;59.30;;;;;;5035004;28;20029;-49
2024/03/30 08:02:40;;;;;;;5.03;1.90;;;19.50;59.40;;;;;;5036033;28;20397;-49
2024/03/30 08:05:06;;;;;;;5.03;1.88;;;19.50;59.50;;;;;;5038925;28;20028;-56
2024/03/30 08:07:31;;;;;;;7.60;2.42;;;19.50;59.40;;;;;;5038829;28;20500;-53
2024/03/30 08:09:57;;;;;;;6.82;2.03;;;19.50;59.40;;;;;;5038583;28;20371;-56
2024/03/30 08:12:22;;;;;;;4.45;1.77;;;19.50;59.40;;;;;;5034919;28;20455;-49
2024/03/30 08:14:48;;;;;;;4.88;1.50;;;19.50;59.40;;;;;;5044575;28;21531;-51
2024/03/30 08:17:13;;;;;;;8.02;2.08;;;19.50;59.40;;;;;;5039752;28;20060;-55
2024/03/30 08:19:39;;;;;;;5.60;2.20;;;19.50;59.40;;;;;;5044020;28;20029;-50
2024/03/30 08:22:04;;;;;;;6.20;2.15;;;19.50;59.40;;;;;;5038457;28;20493;-51
2024/03/30 08:24:31;;;;;;;5.50;1.80;;;19.50;59.40;;;;;;5041334;28;20026;-56
2024/03/30 08:26:56;;;;;;;4.72;2.17;;;19.50;59.40;;;;;;5043440;28;20029;-49
2024/03/30 08:29:22;;;;;;;5.63;2.08;;;19.50;59.50;;;;;;5037183;28;20036;-53
2024/03/30 08:31:47;;;;;;;5.50;2.33;;;19.50;59.50;;;;;;5040103;28;20079;-56
2024/03/30 08:34:13;;;;;;;7.43;1.80;;;19.40;59.40;;;;;;5036656;28;20670;-49
2024/03/30 08:36:38;;;;;;;5.03;1.75;;;19.50;59.40;;;;;;5037818;28;20029;-58
2024/03/30 08:39:04;;;;;;;6.82;2.28;;;19.50;60.10;;;;;;5044211;28;20096;-57
2024/03/30 08:41:29;;;;;;;4.00;1.88;;;19.50;59.40;;;;;;5038864;28;20033;-59
2024/03/30 08:43:55;;;;;;;4.25;1.52;;;19.50;59.40;;;;;;5042391;28;20621;-49
2024/03/30 08:46:20;;;;;;;7.28;2.15;;;19.50;59.40;;;;;;5041797;28;20025;-52
2024/03/30 08:48:46;;;;;;;5.32;1.73;;;19.50;59.40;;;;;;5033395;28;20456;-57
2024/03/30 08:51:11;;;;;;;6.05;1.90;;;19.50;59.40;;;;;;5053311;28;20029;-49
2024/03/30 08:53:37;;;;;;;5.78;1.95;;;19.50;59.40;;;;;;5044442;28;20037;-49
2024/03/30 08:56:03;;;;;;;6.90;2.15;;;19.50;59.40;;;;;;5042006;28;20099;-55
2024/03/30 08:58:29;;;;;;;7.60;2.60;;;19.50;59.40;;;;;;5036992;28;20468;-50
2024/03/30 09:00:55;;;;;;;6.20;2.53;;;19.50;59.50;;;;;;5047641;28;20109;-49
2024/03/30 09:03:20;;;;;;;8.20;2.80;;;19.50;60.10;;;;;;5040659;28;20112;-58
2024/03/30 09:05:46;;;;;;;9.35;3.97;;;19.40;59.50;;;;;;5041604;28;20481;-49
2024/03/30 09:08:16;;;;;;;10.38;4.50;;;19.50;59.60;;;;;;5042868;28;20626;-49
2024/03/30 09:10:42;;;;;;;7.28;3.33;;;19.40;59.50;;;;;;5036679;28;20033;-49
2024/03/30 09:13:08;;;;;;;8.45;3.88;;;19.40;59.50;;;;;;5040478;28;20040;-49
2024/03/30 09:15:33;;;;;;;11.50;4.55;;;19.50;59.70;;;;;;5040678;28;20033;-55
2024/03/30 09:18:00;;;;;;;9.43;4.15;;;19.40;59.70;;;;;;5038393;28;20452;-56
2024/03/30 09:20:26;;;;;;;9.85;4.03;;;19.40;59.70;;;;;;5036043;28;20044;-53
2024/03/30 09:22:52;;;;;;;11.73;4.32;;;19.40;59.90;;;;;;5039430;28;20057;-52
2024/03/30 09:25:17;;;;;;;13.15;4.05;;;19.40;59.90;;;;;;5039141;28;20056;-52
2024/03/30 09:27:43;;;;;;;13.05;5.30;;;19.40;59.90;;;;;;5041941;28;20033;-56
2024/03/30 09:30:10;;;;;;;15.18;4.85;;;19.40;60.00;;;;;;5038301;28;20036;-49
2024/03/30 09:32:36;;;;;;;14.45;5.15;;;19.40;60.00;;;;;;5042589;28;20482;-57
2024/03/30 09:35:02;;;;;;;23.55;6.20;;;19.30;59.90;;;;;;5042781;28;20032;-52
2024/03/30 09:37:28;;;;;;;19.17;5.13;;;19.40;60.10;;;;;;5041977;28;20029;-50
2024/03/30 09:39:53;;;;;;;13.45;4.85;;;19.40;60.00;;;;;;5039473;28;20028;-51
2024/03/30 09:42:33;;;;;;;15.00;5.57;;;19.30;59.90;;;;;;5042956;28;20168;-55
2024/03/30 09:45:00;;;;;;;16.23;5.13;;;19.30;59.90;;;;;;5043660;28;20032;-55
2024/03/30 09:47:26;;;;;;;23.45;6.05;;;19.30;59.90;;;;;;5042421;28;20040;-55
2024/03/30 09:49:53;;;;;;;13.65;5.50;;;19.40;59.90;;;;;;5039435;28;20048;-49
2024/03/30 09:52:20;;;;;;;17.35;5.38;;;19.40;59.90;;;;;;5039662;28;20486;-53
2024/03/30 09:54:49;;;;;;;20.48;6.00;;;19.40;59.80;;;;;;5040297;28;20479;-52
2024/03/30 09:57:15;;;;;;;16.10;5.53;;;19.40;59.80;;;;;;5039599;28;20598;-49
2024/03/30 09:59:43;;;;;;;23.10;5.18;;;19.40;59.80;;;;;;5041262;28;20037;-56
2024/03/30 10:02:10;;;;;;;18.60;5.72;;;19.40;59.70;;;;;;5038974;28;20174;-49
2024/03/30 10:04:36;;;;;;;23.50;6.72;;;19.40;59.70;;;;;;5037814;28;20552;-56
2024/03/30 10:07:09;;;;;;;26.63;6.35;;;19.40;59.70;;;;;;5033738;28;20047;-49
2024/03/30 10:09:35;;;;;;;15.10;5.28;;;19.40;59.70;;;;;;5025676;28;20032;-56
2024/03/30 10:12:11;;;;;;;15.55;6.03;;;19.40;59.70;;;;;;5033134;28;20047;-53
2024/03/30 10:14:42;;;;;;;19.67;6.47;;;19.40;59.70;;;;;;5029192;28;20448;-55
2024/03/30 10:17:09;;;;;;;18.35;5.60;;;19.40;59.70;;;;;;5005007;28;20033;-55
2024/03/30 10:19:35;;;;;;;19.70;6.18;;;19.40;59.70;;;;;;5034652;28;20029;-52
2024/03/30 10:22:03;;;;;;;21.23;6.88;;;19.40;59.60;;;;;;5033359;28;20041;-53
2024/03/30 10:24:29;;;;;;;21.45;5.68;;;19.50;59.60;;;;;;5032851;28;20558;-57
2024/03/30 10:26:55;;;;;;;19.25;5.93;;;19.50;59.70;;;;;;5034246;28;20033;-51
2024/03/30 10:29:20;;;;;;;23.50;6.10;;;19.40;59.70;;;;;;5032781;28;20119;-56
2024/03/30 10:31:47;;;;;;;18.33;6.22;;;19.40;59.70;;;;;;5035364;28;20649;-51
2024/03/30 10:34:13;;;;;;;18.08;7.28;;;19.50;59.70;;;;;;5020969;28;20017;-56
2024/03/30 10:36:38;;;;;;;21.30;6.32;;;19.50;59.70;;;;;;5037488;28;20020;-56
2024/03/30 10:39:04;;;;;;;18.45;6.30;;;19.50;59.70;;;;;;5036954;28;20033;-56
2024/03/30 10:41:30;;;;;;;21.85;6.75;;;19.50;59.70;;;;;;5045778;22;20478;-49
2024/03/30 10:43:56;;;;;;;16.98;6.20;;;19.50;59.60;;;;;;5016433;28;20087;-49
2024/03/30 10:46:25;;;;;;;24.55;6.20;;;19.50;59.50;;;;;;5021640;28;20021;-50
2024/03/30 10:48:51;;;;;;;20.75;5.78;;;19.50;59.50;;;;;;5022625;28;20034;-57
2024/03/30 10:51:18;;;;;;;26.83;6.28;;;19.50;59.50;;;;;;5017341;28;20441;-53
2024/03/30 10:53:44;;;;;;;27.50;7.03;;;19.50;59.50;;;;;;5012010;28;20061;-54
2024/03/30 10:56:10;;;;;;;24.95;6.93;;;19.50;59.50;;;;;;5013117;28;20057;-57
2024/03/30 10:58:37;;;;;;;21.65;6.95;;;19.50;59.50;;;;;;5033585;28;20033;-56
2024/03/30 11:01:05;;;;;;;20.80;6.53;;;19.60;59.50;;;;;;5013765;28;20033;-47
2024/03/30 11:03:31;;;;;;;24.63;6.13;;;19.50;59.40;;;;;;5015880;28;20096;-55
2024/03/30 11:05:58;;;;;;;25.23;6.60;;;19.50;59.40;;;;;;5004572;28;20030;-57
2024/03/30 11:08:25;;;;;;;26.65;6.45;;;19.60;59.50;;;;;;5014205;28;20030;-51
2024/03/30 11:10:51;;;;;;;31.52;7.13;;;19.60;59.50;;;;;;5011614;28;20069;-58
2024/03/30 11:13:17;;;;;;;28.33;7.22;;;19.60;59.40;;;;;;5016553;28;20037;-57
2024/03/30 11:15:43;;;;;;;16.70;6.15;;;19.50;59.30;;;;;;5013321;28;20092;-50
2024/03/30 11:18:20;;;;;;;34.28;7.57;;;19.50;59.20;;;;;;5017204;28;20026;-49
2024/03/30 11:21:04;;;;;;;26.58;7.97;;;19.60;59.20;;;;;;5009431;28;20045;-54
2024/03/30 11:23:57;;;;;;;34.80;8.32;;;19.60;59.20;;;;;;5014382;28;20049;-54
2024/03/30 11:26:24;;;;;;;26.63;7.05;;;19.60;59.20;;;;;;5007352;28;20038;-51
2024/03/30 11:29:17;;;;;;;23.50;6.53;;;19.60;59.20;;;;;;5014591;28;20034;-52
2024/03/30 11:31:51;;;;;;;30.55;7.55;;;19.60;59.10;;;;;;5012598;28;20030;-50
2024/03/30 11:34:44;;;;;;;26.95;6.10;;;19.60;59.10;;;;;;5017677;28;20080;-49
2024/03/30 11:37:22;;;;;;;29.05;7.13;;;19.60;59.10;;;;;;5013986;28;20589;-52
2024/03/30 11:40:01;;;;;;;33.67;7.43;;;19.60;59.10;;;;;;5012891;28;20600;-50
2024/03/30 11:42:53;;;;;;;31.90;6.85;;;19.60;59.10;;;;;;5015826;28;20046;-53
2024/03/30 11:45:28;;;;;;;28.88;6.65;;;19.60;59.10;;;;;;5014565;28;20041;-56
2024/03/30 11:47:54;;;;;;;29.60;7.63;;;19.60;59.10;;;;;;5015132;28;20491;-49
2024/03/30 11:50:20;;;;;;;25.65;8.27;;;19.60;59.20;;;;;;5009656;28;20029;-56
2024/03/30 11:52:47;;;;;;;29.55;6.95;;;19.60;59.20;;;;;;5013681;28;20403;-53
2024/03/30 11:55:22;;;;;;;28.60;7.18;;;19.60;59.30;;;;;;5010815;28;20037;-53
2024/03/30 11:57:52;;;;;;;27.35;7.05;;;19.50;59.20;;;;;;5011153;28;20298;-49
2024/03/30 12:00:20;;;;;;;37.95;8.05;;;19.50;59.40;;;;;;5011119;28;20513;-52
2024/03/30 12:02:47;;;;;;;32.85;7.13;;;19.50;59.30;;;;;;5010111;28;20141;-49
2024/03/30 12:05:19;;;;;;;25.55;6.70;;;19.50;59.30;;;;;;5008738;28;20030;-51
2024/03/30 12:07:45;;;;;;;21.23;6.75;;;19.50;59.40;;;;;;5001481;28;20395;-56
2024/03/30 12:10:14;;;;;;;27.73;7.47;;;19.50;59.40;;;;;;5011387;28;20029;-50
2024/03/30 12:12:39;;;;;;;27.35;6.97;;;19.50;59.40;;;;;;5019547;28;20517;-51
2024/03/30 12:15:12;;;;;;;24.77;7.20;;;19.50;59.40;;;;;;5006971;28;20037;-50
2024/03/30 12:17:39;;;;;;;24.35;6.93;;;19.50;59.50;;;;;;5021201;28;20523;-47
2024/03/30 12:20:06;;;;;;;22.73;6.10;;;19.50;59.50;;;;;;5020714;28;20037;-55
2024/03/30 12:22:32;;;;;;;25.52;6.53;;;19.50;59.40;;;;;;5020169;28;20029;-53
2024/03/30 12:24:58;;;;;;;21.70;6.88;;;19.50;59.50;;;;;;5019587;28;20056;-52
2024/03/30 12:27:24;;;;;;;24.40;6.32;;;19.50;59.50;;;;;;5022726;28;20033;-54
2024/03/30 12:29:50;;;;;;;17.13;6.30;;;19.50;59.50;;;;;;5017021;28;20028;-50
2024/03/30 12:32:15;;;;;;;24.52;6.20;;;19.50;59.50;;;;;;5018324;28;20045;-52
2024/03/30 12:34:42;;;;;;;20.50;6.53;;;19.50;59.40;;;;;;5014700;28;20042;-56
2024/03/30 12:37:08;;;;;;;20.80;6.88;;;19.50;59.40;;;;;;5019874;28;20066;-55
2024/03/30 12:39:33;;;;;;;22.65;6.75;;;19.60;59.50;;;;;;5020334;28;20549;-51
2024/03/30 12:41:59;;;;;;;33.00;6.85;;;19.60;59.50;;;;;;5012487;28;20448;-56
2024/03/30 12:44:25;;;;;;;18.95;5.57;;;19.50;59.50;;;;;;5012760;28;20120;-52